Terminal Aerodrome Forecast
Issued by NWS Houston/Galveston, TX

Home | Current Version | Previous Version | Text Only | Print | Product List | Glossary On
Versions: 1 2 3 4 5 6 7 8 9 10 11 12 13 14 15 16 17 18 19 20 21 22 23 24 25 26 27 28 29 30 31 32 33 34 35 36 37 38 39 40
652
FTUS44 KHGX 131734
TAFGLS
TAF
KGLS 131734Z 1318/1418 08015KT P6SM BKN028
     FM132100 09012KT P6SM BKN050
     FM140500 13009KT 4SM BR BKN015
     FM141600 15009KT P6SM BKN025=

USA.gov is the U.S. government's official web portal to all federal, state and local government web resources and services.